Time;durP1;ratioP1;P1;durP2;ratioP2;P2;SDS_P1;SDS_P2;PMS_P1;PMS_P2;Temp;Humidity;BMP_temperature;BMP_pressure;BME280_temperature;BME280_humidity;BME280_pressure;Samples;Min_cycle;Max_cycle;Signal;HPM_P1;HPM_P2
2023/08/07 00:01:57;;;;;;;0.60;0.60;;;;;;;;;;5080753;28;20020;-73
2023/08/07 00:04:23;;;;;;;3.13;0.70;;;;;;;;;;5083345;28;20028;-73
2023/08/07 00:06:49;;;;;;;0.57;0.50;;;;;;;;;;5082055;28;20101;-73
2023/08/07 00:09:15;;;;;;;3.70;0.70;;;;;;;;;;5083400;28;20063;-74
2023/08/07 00:11:41;;;;;;;0.60;0.60;;;;;;;;;;5084683;28;20059;-72
2023/08/07 00:14:07;;;;;;;1.95;0.65;;;13.00;92.10;;;;;;5073664;28;20025;-74
2023/08/07 00:16:33;;;;;;;1.20;0.80;;;13.00;92.40;;;;;;5074438;28;20049;-74
2023/08/07 00:18:59;;;;;;;2.35;0.60;;;13.00;92.60;;;;;;5078284;28;20017;-75
2023/08/07 00:21:24;;;;;;;0.60;0.57;;;12.90;92.90;;;;;;5076381;28;20481;-75
2023/08/07 00:23:50;;;;;;;0.90;0.90;;;12.90;93.20;;;;;;5074928;28;20397;-74
2023/08/07 00:26:16;;;;;;;1.30;0.50;;;12.80;93.10;;;;;;5071811;28;20039;-76
2023/08/07 00:28:42;;;;;;;1.42;0.65;;;12.90;93.10;;;;;;5075019;28;20028;-74
2023/08/07 00:31:07;;;;;;;1.75;0.93;;;12.80;93.20;;;;;;5074944;28;20029;-75
2023/08/07 00:33:33;;;;;;;1.00;0.80;;;12.70;93.40;;;;;;5075069;28;20025;-74
2023/08/07 00:35:59;;;;;;;1.17;0.70;;;12.80;93.30;;;;;;5074203;28;20047;-74
2023/08/07 00:38:24;;;;;;;0.82;0.60;;;12.70;93.40;;;;;;5074670;28;20041;-74
2023/08/07 00:40:50;;;;;;;1.00;0.88;;;12.70;93.80;;;;;;5074512;28;20025;-75
2023/08/07 00:43:16;;;;;;;1.50;0.77;;;12.70;94.00;;;;;;5067786;28;20036;-75
2023/08/07 00:45:43;;;;;;;0.98;0.68;;;12.60;94.60;;;;;;5055629;28;20040;-74
2023/08/07 00:48:09;;;;;;;1.00;0.80;;;12.50;94.80;;;;;;5076108;28;20038;-76
2023/08/07 00:50:36;;;;;;;1.02;0.63;;;12.40;95.10;;;;;;5093133;28;20020;-75
2023/08/07 00:53:02;;;;;;;2.38;0.85;;;12.30;95.20;;;;;;5099754;28;20111;-76
2023/08/07 00:55:29;;;;;;;1.13;0.88;;;12.20;95.70;;;;;;5108044;28;20054;-75
2023/08/07 00:57:56;;;;;;;0.75;0.65;;;12.10;96.40;;;;;;5096580;28;20039;-76
2023/08/07 01:00:22;;;;;;;1.40;0.77;;;12.10;97.00;;;;;;5070225;28;20029;-75
2023/08/07 01:02:50;;;;;;;2.53;1.20;;;12.00;97.60;;;;;;5067989;28;20084;-75
2023/08/07 01:05:17;;;;;;;2.78;1.00;;;11.90;98.00;;;;;;5075568;28;20027;-75
2023/08/07 01:07:43;;;;;;;1.52;0.80;;;11.80;98.50;;;;;;5075651;28;20494;-75
2023/08/07 01:10:09;;;;;;;0.75;0.60;;;11.70;99.00;;;;;;5095852;28;20032;-75
2023/08/07 01:12:45;;;;;;;1.75;0.77;;;11.70;99.40;;;;;;5095945;28;20035;-76
2023/08/07 01:15:16;;;;;;;2.88;0.70;;;11.60;99.90;;;;;;5080075;28;20028;-74
2023/08/07 01:17:44;;;;;;;0.50;0.45;;;11.60;99.90;;;;;;5073550;28;20125;-74
2023/08/07 01:20:11;;;;;;;1.25;0.50;;;11.50;99.90;;;;;;5089725;28;20110;-75
2023/08/07 01:22:37;;;;;;;2.47;0.80;;;11.40;99.90;;;;;;5098323;28;20024;-74
2023/08/07 01:25:03;;;;;;;0.90;0.73;;;11.30;99.90;;;;;;5106616;28;20084;-73
2023/08/07 01:27:51;;;;;;;1.90;0.80;;;11.40;99.90;;;;;;5108778;28;20093;-75
2023/08/07 01:30:30;;;;;;;0.80;0.70;;;11.30;99.90;;;;;;5097506;28;20020;-75
2023/08/07 01:33:10;;;;;;;1.48;0.60;;;11.30;99.90;;;;;;5076375;28;20033;-75
2023/08/07 01:35:42;;;;;;;0.88;0.65;;;11.30;99.90;;;;;;5055780;28;20168;-75
2023/08/07 01:38:09;;;;;;;1.52;0.80;;;11.20;99.90;;;;;;5058963;28;20390;-74
2023/08/07 01:40:37;;;;;;;0.88;0.55;;;11.20;99.90;;;;;;5058011;28;20380;-75
2023/08/07 01:43:03;;;;;;;1.30;0.95;;;11.20;99.90;;;;;;5059941;28;20048;-75
2023/08/07 01:45:29;;;;;;;0.60;0.60;;;11.20;99.90;;;;;;5058866;28;20029;-75
2023/08/07 01:47:55;;;;;;;0.65;0.55;;;11.20;99.90;;;;;;5070331;28;20031;-75
2023/08/07 01:50:22;;;;;;;1.98;1.10;;;11.10;99.90;;;;;;5087247;28;20100;-77
2023/08/07 01:52:47;;;;;;;0.70;0.70;;;11.00;99.90;;;;;;5080400;28;20028;-74
2023/08/07 01:55:14;;;;;;;0.80;0.80;;;11.10;99.90;;;;;;5076636;28;20111;-74
2023/08/07 01:57:40;;;;;;;2.17;1.02;;;11.00;99.90;;;;;;5078910;28;20047;-74
2023/08/07 02:00:08;;;;;;;0.90;0.65;;;11.00;99.90;;;;;;5079381;28;20025;-75
2023/08/07 02:02:34;;;;;;;0.85;0.60;;;10.90;99.90;;;;;;5078886;28;20448;-73
2023/08/07 02:05:00;;;;;;;1.23;0.90;;;10.90;99.90;;;;;;5077292;28;20055;-74
2023/08/07 02:07:25;;;;;;;1.02;0.77;;;10.90;99.90;;;;;;5076073;28;20097;-74
2023/08/07 02:09:51;;;;;;;1.50;0.70;;;10.90;99.90;;;;;;5078952;28;20021;-74
2023/08/07 02:12:17;;;;;;;1.73;0.73;;;10.90;99.90;;;;;;5078560;28;20035;-74
2023/08/07 02:14:42;;;;;;;1.25;1.02;;;10.90;99.90;;;;;;5078645;28;20028;-75
2023/08/07 02:17:08;;;;;;;1.15;0.80;;;10.90;99.90;;;;;;5079602;28;20020;-75
2023/08/07 02:19:34;;;;;;;0.85;0.70;;;10.90;99.90;;;;;;5085519;28;20082;-74
2023/08/07 02:21:59;;;;;;;1.80;0.95;;;10.90;99.90;;;;;;5087708;28;20108;-74
2023/08/07 02:24:25;;;;;;;1.45;0.80;;;10.90;99.90;;;;;;5075324;28;20126;-74
2023/08/07 02:26:51;;;;;;;1.33;0.80;;;10.90;99.90;;;;;;5077218;28;20028;-76
2023/08/07 02:29:16;;;;;;;1.85;0.98;;;11.00;99.90;;;;;;5076465;28;20101;-75
2023/08/07 02:31:42;;;;;;;1.10;0.80;;;10.90;99.90;;;;;;5076557;28;20025;-74
2023/08/07 02:34:08;;;;;;;1.58;0.90;;;11.00;99.90;;;;;;5077959;28;20025;-75
2023/08/07 02:36:33;;;;;;;1.70;0.90;;;11.00;99.90;;;;;;5077323;28;20415;-75
2023/08/07 02:38:59;;;;;;;2.90;0.77;;;11.00;99.90;;;;;;5061079;28;20128;-75
2023/08/07 02:41:25;;;;;;;0.60;0.60;;;11.10;99.90;;;;;;5056243;28;20036;-76
2023/08/07 02:43:50;;;;;;;2.10;1.00;;;11.10;99.90;;;;;;5058055;28;20047;-75
2023/08/07 02:46:16;;;;;;;1.65;0.80;;;11.10;99.90;;;;;;5059885;28;20103;-75
2023/08/07 02:48:43;;;;;;;0.95;0.90;;;11.10;99.90;;;;;;5083413;28;20012;-75
2023/08/07 02:51:09;;;;;;;1.17;1.00;;;11.10;99.90;;;;;;5093399;28;20044;-75
2023/08/07 02:53:35;;;;;;;1.67;0.98;;;11.20;99.90;;;;;;5092813;28;20032;-74
2023/08/07 02:56:01;;;;;;;1.00;0.90;;;11.20;99.90;;;;;;5058951;28;20513;-74
2023/08/07 02:58:26;;;;;;;1.02;0.90;;;11.20;99.90;;;;;;5060516;28;20104;-75
2023/08/07 03:00:52;;;;;;;1.73;1.05;;;11.20;99.90;;;;;;5059434;28;20095;-75
2023/08/07 03:03:18;;;;;;;0.77;0.70;;;11.20;99.90;;;;;;5058570;28;20029;-75
2023/08/07 03:05:50;;;;;;;2.22;0.90;;;11.20;99.90;;;;;;5064285;28;20025;-75
2023/08/07 03:08:16;;;;;;;1.83;1.00;;;11.20;99.90;;;;;;5072253;28;20028;-76
2023/08/07 03:10:42;;;;;;;0.70;0.70;;;11.20;99.90;;;;;;5059686;28;20033;-75
2023/08/07 03:13:08;;;;;;;1.23;0.90;;;11.20;99.90;;;;;;5057065;28;20394;-76
2023/08/07 03:15:33;;;;;;;1.00;0.90;;;11.30;99.90;;;;;;5058726;28;20021;-75
2023/08/07 03:17:59;;;;;;;1.90;0.80;;;11.30;99.90;;;;;;5066975;28;20024;-75
2023/08/07 03:20:25;;;;;;;1.70;0.93;;;11.30;99.90;;;;;;5087648;28;20024;-74
2023/08/07 03:22:50;;;;;;;0.93;0.85;;;11.30;99.90;;;;;;5099923;28;20055;-73
2023/08/07 03:25:17;;;;;;;1.30;0.68;;;11.40;99.90;;;;;;5081711;28;20454;-75
2023/08/07 03:27:43;;;;;;;2.88;1.40;;;11.40;99.90;;;;;;5075647;28;20077;-75
2023/08/07 03:30:09;;;;;;;2.83;0.80;;;11.40;99.90;;;;;;5076614;28;20076;-75
2023/08/07 03:32:35;;;;;;;1.90;0.63;;;11.50;99.90;;;;;;5075189;28;20024;-75
2023/08/07 03:35:00;;;;;;;1.70;0.95;;;11.50;99.90;;;;;;5075371;28;20044;-75
2023/08/07 03:37:26;;;;;;;1.55;0.95;;;11.50;99.90;;;;;;5071799;28;20031;-76
2023/08/07 03:39:52;;;;;;;3.10;1.27;;;11.50;99.90;;;;;;5062921;28;20518;-77
2023/08/07 03:42:17;;;;;;;2.40;1.00;;;11.50;99.90;;;;;;5053254;28;20462;-76
2023/08/07 03:44:43;;;;;;;1.67;1.02;;;11.50;99.90;;;;;;5055085;28;20029;-76
2023/08/07 03:47:09;;;;;;;2.00;0.93;;;11.50;99.90;;;;;;5054326;28;20047;-76
2023/08/07 03:49:34;;;;;;;1.20;1.10;;;11.50;99.90;;;;;;5085389;28;20397;-75
2023/08/07 03:52:00;;;;;;;1.23;0.82;;;11.50;99.90;;;;;;5080140;28;20047;-75
2023/08/07 03:54:26;;;;;;;2.75;1.23;;;11.50;99.90;;;;;;5074890;28;20107;-75
2023/08/07 03:56:52;;;;;;;2.15;0.93;;;11.60;99.90;;;;;;5079644;28;20040;-74
2023/08/07 03:59:17;;;;;;;1.55;1.00;;;11.50;99.90;;;;;;5075050;28;20032;-74
2023/08/07 04:01:43;;;;;;;1.23;0.80;;;11.50;99.90;;;;;;5075460;28;20139;-76
2023/08/07 04:04:09;;;;;;;1.33;1.10;;;11.60;99.90;;;;;;5077396;28;20093;-76
2023/08/07 04:06:34;;;;;;;1.55;0.80;;;11.60;99.90;;;;;;5081171;28;20028;-75
2023/08/07 04:09:01;;;;;;;1.92;0.90;;;11.60;99.90;;;;;;5086105;28;20028;-74
2023/08/07 04:11:27;;;;;;;1.17;0.90;;;11.60;99.80;;;;;;5087842;28;20020;-74
2023/08/07 04:13:52;;;;;;;4.57;1.05;;;11.70;99.60;;;;;;5088230;28;20066;-77
2023/08/07 04:16:18;;;;;;;2.92;0.98;;;11.70;99.20;;;;;;5079137;28;20028;-74
2023/08/07 04:18:44;;;;;;;2.45;1.02;;;11.80;99.30;;;;;;5083791;28;20031;-74
2023/08/07 04:21:10;;;;;;;3.63;0.90;;;11.70;99.30;;;;;;5082990;28;20035;-76
2023/08/07 04:23:35;;;;;;;1.00;1.00;;;11.80;98.90;;;;;;5069665;28;20025;-76
2023/08/07 04:26:01;;;;;;;2.60;1.40;;;11.70;98.40;;;;;;5053565;28;20036;-75
2023/08/07 04:28:30;;;;;;;1.20;1.10;;;11.70;98.20;;;;;;5054249;28;20104;-75
2023/08/07 04:30:55;;;;;;;3.58;1.23;;;11.80;98.60;;;;;;5055147;28;20043;-76
2023/08/07 04:33:21;;;;;;;2.22;1.15;;;11.80;97.90;;;;;;5066761;28;20076;-74
2023/08/07 04:35:47;;;;;;;1.95;0.90;;;11.90;97.80;;;;;;5069680;28;20021;-74
2023/08/07 04:38:14;;;;;;;1.55;1.40;;;11.80;97.70;;;;;;5062458;28;20028;-74
2023/08/07 04:40:46;;;;;;;1.70;1.13;;;11.80;97.40;;;;;;5064602;28;20021;-74
2023/08/07 04:43:16;;;;;;;1.75;1.15;;;11.80;97.60;;;;;;5059021;28;20025;-76
2023/08/07 04:45:44;;;;;;;3.15;0.98;;;11.90;97.00;;;;;;5059216;28;20063;-76
2023/08/07 04:48:11;;;;;;;3.22;1.17;;;11.80;97.00;;;;;;5072316;28;20064;-76
2023/08/07 04:50:37;;;;;;;3.83;1.50;;;11.80;97.10;;;;;;5089866;28;20015;-75
2023/08/07 04:53:04;;;;;;;1.90;1.17;;;11.90;96.80;;;;;;5098575;28;20103;-76
2023/08/07 04:55:31;;;;;;;1.00;0.90;;;11.90;96.60;;;;;;5099705;28;20124;-76
2023/08/07 04:57:57;;;;;;;2.42;1.10;;;11.90;96.80;;;;;;5063042;28;20167;-75
2023/08/07 05:00:23;;;;;;;0.90;0.88;;;11.90;96.70;;;;;;5058187;28;20147;-75
2023/08/07 05:02:49;;;;;;;3.90;1.27;;;12.00;96.50;;;;;;5057448;28;20021;-75
2023/08/07 05:05:15;;;;;;;1.80;1.55;;;12.00;96.00;;;;;;5057420;28;20029;-74
2023/08/07 05:07:41;;;;;;;1.00;0.90;;;12.00;96.00;;;;;;5057493;28;20110;-76
2023/08/07 05:10:08;;;;;;;1.67;1.02;;;12.00;95.60;;;;;;5060019;28;20047;-75
2023/08/07 05:12:34;;;;;;;3.25;1.33;;;12.10;95.60;;;;;;5058008;28;20021;-74
2023/08/07 05:15:00;;;;;;;1.70;0.98;;;12.10;95.00;;;;;;5070461;28;20027;-74
2023/08/07 05:17:25;;;;;;;1.63;1.50;;;12.10;95.10;;;;;;5079119;28;20028;-74
2023/08/07 05:19:51;;;;;;;1.02;0.90;;;12.20;94.90;;;;;;5075651;28;20043;-74
2023/08/07 05:22:17;;;;;;;1.40;1.20;;;12.20;94.80;;;;;;5065139;28;20482;-73
2023/08/07 05:24:44;;;;;;;2.63;1.40;;;12.20;94.80;;;;;;5063436;28;20091;-74
2023/08/07 05:27:11;;;;;;;4.20;1.95;;;12.20;94.50;;;;;;5064348;28;20051;-74
2023/08/07 05:29:43;;;;;;;2.33;1.17;;;12.30;94.10;;;;;;5072131;28;20044;-73
2023/08/07 05:32:10;;;;;;;2.67;1.48;;;12.30;94.20;;;;;;5081935;28;20021;-73
2023/08/07 05:34:36;;;;;;;2.92;1.10;;;12.20;94.10;;;;;;5081979;28;20028;-75
2023/08/07 05:37:01;;;;;;;1.85;1.02;;;12.20;93.70;;;;;;5084871;28;20020;-74
2023/08/07 05:39:27;;;;;;;1.45;0.90;;;12.30;93.80;;;;;;5083800;28;20032;-74
2023/08/07 05:41:54;;;;;;;1.25;0.90;;;12.30;93.80;;;;;;5083222;28;20035;-73
2023/08/07 05:44:20;;;;;;;1.38;1.00;;;12.30;93.80;;;;;;5087072;28;20029;-74
2023/08/07 05:46:48;;;;;;;3.85;1.35;;;12.30;93.60;;;;;;5086695;28;20454;-74
2023/08/07 05:49:13;;;;;;;2.10;0.93;;;12.30;93.10;;;;;;5093103;28;20079;-74
2023/08/07 05:51:39;;;;;;;2.95;1.20;;;12.30;93.30;;;;;;5097998;28;20070;-75
2023/08/07 05:54:05;;;;;;;2.05;1.35;;;12.40;92.80;;;;;;5100113;28;20068;-75
2023/08/07 05:56:30;;;;;;;3.58;1.40;;;12.30;92.80;;;;;;5098940;28;20119;-75
2023/08/07 05:58:56;;;;;;;1.73;1.10;;;12.40;92.80;;;;;;5097967;28;20028;-74
2023/08/07 06:01:22;;;;;;;1.63;0.90;;;12.40;92.90;;;;;;5100896;28;20111;-76
2023/08/07 06:03:48;;;;;;;1.08;0.93;;;12.40;93.00;;;;;;5071773;28;20055;-75
2023/08/07 06:06:14;;;;;;;4.28;1.50;;;12.40;92.90;;;;;;5072423;28;20100;-74
2023/08/07 06:08:40;;;;;;;1.38;1.08;;;12.40;92.80;;;;;;5062981;28;20389;-75
2023/08/07 06:11:08;;;;;;;1.75;1.20;;;12.40;92.30;;;;;;5067665;28;20021;-76
2023/08/07 06:13:34;;;;;;;1.85;1.25;;;12.50;92.50;;;;;;5067716;28;20514;-75
2023/08/07 06:16:00;;;;;;;1.63;1.02;;;12.50;92.30;;;;;;5060868;28;20052;-75
2023/08/07 06:18:25;;;;;;;1.63;1.08;;;12.50;92.10;;;;;;5078611;28;20024;-73
2023/08/07 06:20:51;;;;;;;3.83;1.15;;;12.60;92.10;;;;;;5076182;28;20028;-77
2023/08/07 06:23:17;;;;;;;2.67;1.05;;;12.60;91.80;;;;;;5078685;28;20400;-73
2023/08/07 06:25:43;;;;;;;2.22;0.88;;;12.70;91.70;;;;;;5077589;28;20103;-75
2023/08/07 06:28:08;;;;;;;1.73;1.00;;;12.70;91.50;;;;;;5078762;28;20048;-75
2023/08/07 06:30:34;;;;;;;4.38;1.50;;;12.80;91.50;;;;;;5076750;28;20024;-74
2023/08/07 06:33:00;;;;;;;2.80;1.20;;;12.90;91.00;;;;;;5077738;28;20086;-75
2023/08/07 06:35:25;;;;;;;3.47;1.15;;;13.00;90.70;;;;;;5077545;28;20063;-75
2023/08/07 06:37:51;;;;;;;2.35;1.17;;;13.20;90.20;;;;;;5063077;28;20032;-74
2023/08/07 06:40:17;;;;;;;1.77;1.30;;;13.40;90.00;;;;;;5066724;28;20055;-74
2023/08/07 06:42:42;;;;;;;3.05;1.30;;;13.50;89.40;;;;;;5064606;28;20128;-75
2023/08/07 06:45:08;;;;;;;3.60;1.17;;;13.60;88.10;;;;;;5078955;28;20028;-75
2023/08/07 06:47:34;;;;;;;1.92;1.20;;;13.80;88.20;;;;;;5077681;28;20028;-75
2023/08/07 06:50:00;;;;;;;2.55;1.13;;;14.00;86.60;;;;;;5092217;28;20016;-74
2023/08/07 06:52:25;;;;;;;6.40;1.20;;;14.10;85.80;;;;;;5100563;28;20125;-75
2023/08/07 06:54:52;;;;;;;1.52;1.02;;;14.30;85.40;;;;;;5099706;28;20028;-76
2023/08/07 06:57:18;;;;;;;2.15;1.17;;;14.80;83.30;;;;;;5105453;28;20016;-75
2023/08/07 06:59:44;;;;;;;3.03;0.88;;;14.90;82.50;;;;;;5104142;28;20050;-74
2023/08/07 07:02:09;;;;;;;2.33;1.27;;;14.80;82.10;;;;;;5101890;28;20024;-75
2023/08/07 07:04:36;;;;;;;1.52;1.25;;;14.90;81.00;;;;;;5097634;28;20024;-75
2023/08/07 07:07:02;;;;;;;1.67;1.05;;;14.70;80.90;;;;;;5075333;28;20028;-74
2023/08/07 07:09:28;;;;;;;1.23;1.13;;;14.70;81.80;;;;;;5064106;28;20043;-75
2023/08/07 07:11:55;;;;;;;1.52;0.98;;;14.70;80.30;;;;;;5079798;28;20023;-74
2023/08/07 07:14:21;;;;;;;3.35;1.10;;;14.60;80.40;;;;;;5081826;28;20052;-77
2023/08/07 07:16:47;;;;;;;2.47;1.10;;;14.70;81.20;;;;;;5088711;28;20024;-75
2023/08/07 07:19:13;;;;;;;2.03;1.23;;;14.90;79.50;;;;;;5077921;28;20098;-76
2023/08/07 07:21:39;;;;;;;1.40;1.30;;;15.00;78.40;;;;;;5091167;28;20465;-74
2023/08/07 07:24:06;;;;;;;2.25;1.00;;;15.20;78.70;;;;;;5087142;28;20130;-75
2023/08/07 07:26:31;;;;;;;1.58;1.08;;;15.50;77.60;;;;;;5076412;28;20029;-76
2023/08/07 07:28:57;;;;;;;2.08;1.00;;;15.80;75.90;;;;;;5074042;28;20524;-75
2023/08/07 07:31:23;;;;;;;2.13;1.08;;;15.90;73.90;;;;;;5075762;28;20039;-76
2023/08/07 07:33:49;;;;;;;1.73;1.13;;;16.00;73.70;;;;;;5073783;28;20048;-74
2023/08/07 07:36:18;;;;;;;3.35;1.00;;;16.10;72.00;;;;;;5073871;28;20471;-75
2023/08/07 07:38:48;;;;;;;2.25;1.08;;;16.20;72.00;;;;;;5074857;28;20040;-77
2023/08/07 07:41:17;;;;;;;1.05;0.98;;;16.30;71.70;;;;;;5075436;28;20379;-75
2023/08/07 07:43:43;;;;;;;5.18;1.17;;;16.40;71.70;;;;;;5074777;28;20100;-76
2023/08/07 07:46:09;;;;;;;1.65;1.02;;;16.60;69.90;;;;;;5075055;28;20088;-76
2023/08/07 07:48:34;;;;;;;1.95;1.05;;;16.60;69.90;;;;;;5083152;28;20464;-75
2023/08/07 07:51:01;;;;;;;3.90;1.20;;;16.50;70.40;;;;;;5087562;28;20118;-76
2023/08/07 07:53:27;;;;;;;0.90;0.90;;;16.50;70.90;;;;;;5067680;28;20032;-76
2023/08/07 07:55:53;;;;;;;2.08;1.02;;;16.30;69.30;;;;;;5055163;28;20025;-76
2023/08/07 07:58:20;;;;;;;1.50;1.23;;;16.10;70.40;;;;;;5057161;28;20025;-75
2023/08/07 08:00:46;;;;;;;1.95;1.10;;;16.00;71.60;;;;;;5054951;28;20474;-76
2023/08/07 08:03:12;;;;;;;1.35;1.20;;;15.90;71.40;;;;;;5056071;28;20091;-76
2023/08/07 08:05:38;;;;;;;3.92;1.42;;;15.70;72.40;;;;;;5055250;28;20485;-76
2023/08/07 08:08:09;;;;;;;1.80;1.35;;;15.60;72.20;;;;;;5056874;28;20021;-76
2023/08/07 08:10:35;;;;;;;1.52;1.02;;;;;;;;;;5071646;28;20023;-76
2023/08/07 08:13:03;;;;;;;2.42;1.00;;;15.50;71.90;;;;;;5076241;28;20463;-76
2023/08/07 08:15:29;;;;;;;1.77;1.17;;;15.40;73.50;;;;;;5075278;28;20020;-75
2023/08/07 08:17:55;;;;;;;3.17;0.98;;;15.30;73.70;;;;;;5067093;28;20032;-75
2023/08/07 08:20:21;;;;;;;0.88;0.82;;;15.20;73.80;;;;;;5077884;28;20023;-76
2023/08/07 08:22:47;;;;;;;2.88;1.20;;;15.10;74.20;;;;;;5075321;28;20035;-76
2023/08/07 08:25:13;;;;;;;1.65;1.17;;;15.00;74.00;;;;;;5072635;28;20036;-76
2023/08/07 08:27:39;;;;;;;3.42;1.25;;;14.90;74.80;;;;;;5075874;28;20035;-75
2023/08/07 08:30:06;;;;;;;2.53;1.17;;;14.90;74.90;;;;;;5075286;28;20189;-75
2023/08/07 08:32:32;;;;;;;1.98;1.10;;;14.90;75.20;;;;;;5074817;28;20021;-76
2023/08/07 08:34:57;;;;;;;3.38;1.23;;;15.00;74.20;;;;;;5074554;28;20131;-75
2023/08/07 08:37:23;;;;;;;2.08;1.02;;;14.90;74.80;;;;;;5075590;28;20033;-76
2023/08/07 08:39:49;;;;;;;3.40;1.23;;;15.00;74.50;;;;;;5075440;28;20029;-75
2023/08/07 08:42:18;;;;;;;0.90;0.80;;;15.10;75.00;;;;;;5073354;28;20504;-76
2023/08/07 08:44:52;;;;;;;4.03;1.35;;;15.20;74.80;;;;;;5077128;28;20056;-76
2023/08/07 08:47:18;;;;;;;2.08;1.00;;;15.20;74.80;;;;;;5074854;28;20020;-76
2023/08/07 08:49:47;;;;;;;1.42;1.08;;;15.20;73.80;;;;;;5082831;28;20028;-76
2023/08/07 08:52:13;;;;;;;1.05;1.02;;;15.20;73.00;;;;;;5074747;28;20099;-73
2023/08/07 08:54:44;;;;;;;1.65;1.38;;;15.10;73.20;;;;;;5074088;28;20063;-75
2023/08/07 08:57:11;;;;;;;1.48;1.15;;;15.10;73.90;;;;;;5074615;28;20042;-75
2023/08/07 08:59:38;;;;;;;1.95;1.08;;;15.00;74.40;;;;;;5075369;28;20039;-75
2023/08/07 09:02:04;;;;;;;4.07;1.10;;;15.10;73.80;;;;;;5085581;28;20054;-74
2023/08/07 09:04:30;;;;;;;1.85;1.20;;;15.30;73.00;;;;;;5083406;28;20028;-75
2023/08/07 09:06:56;;;;;;;1.63;1.00;;;15.40;72.70;;;;;;5075021;28;20047;-76
2023/08/07 09:09:23;;;;;;;1.42;1.13;;;15.50;72.20;;;;;;5078304;28;20029;-74
2023/08/07 09:11:50;;;;;;;0.90;0.90;;;15.60;72.00;;;;;;5090678;28;20074;-75
2023/08/07 09:14:20;;;;;;;2.20;1.13;;;15.60;72.00;;;;;;5071888;28;20659;-75
2023/08/07 09:16:50;;;;;;;1.65;1.10;;;15.50;72.30;;;;;;5074574;28;20036;-75
2023/08/07 09:19:15;;;;;;;1.95;1.20;;;15.30;72.80;;;;;;5082962;28;20030;-76
2023/08/07 09:21:41;;;;;;;2.78;1.15;;;15.20;73.60;;;;;;5091332;28;20107;-75
2023/08/07 09:24:07;;;;;;;1.27;1.00;;;15.10;73.90;;;;;;5093595;28;20020;-76
2023/08/07 09:26:33;;;;;;;1.70;1.30;;;15.20;73.80;;;;;;5092487;28;20020;-76
2023/08/07 09:28:59;;;;;;;1.38;1.08;;;15.20;73.80;;;;;;5095502;28;20044;-75
2023/08/07 09:31:26;;;;;;;2.60;1.08;;;15.30;73.50;;;;;;5082428;28;20104;-75
2023/08/07 09:33:52;;;;;;;2.58;1.30;;;15.40;73.60;;;;;;5056768;28;20052;-75
2023/08/07 09:36:18;;;;;;;1.80;1.20;;;15.50;72.40;;;;;;5057452;28;20032;-76
2023/08/07 09:38:49;;;;;;;1.48;0.90;;;15.60;72.40;;;;;;5056605;28;20029;-76
2023/08/07 09:41:19;;;;;;;1.35;0.93;;;15.70;71.80;;;;;;5059013;28;20366;-75
2023/08/07 09:43:45;;;;;;;2.85;1.25;;;15.70;71.90;;;;;;5057342;28;20117;-75
2023/08/07 09:46:11;;;;;;;2.30;1.50;;;15.90;71.40;;;;;;5056647;28;20086;-74
2023/08/07 09:48:43;;;;;;;2.47;1.40;;;16.20;71.60;;;;;;5075319;28;20035;-76
2023/08/07 09:51:10;;;;;;;1.48;1.15;;;16.50;70.20;;;;;;5090571;28;20020;-74
2023/08/07 09:53:36;;;;;;;1.25;1.15;;;16.80;70.00;;;;;;5096809;28;20016;-75
2023/08/07 09:56:02;;;;;;;0.80;0.80;;;17.20;69.50;;;;;;5095496;28;20024;-77
2023/08/07 09:58:29;;;;;;;1.65;1.20;;;17.50;68.90;;;;;;5097321;28;20024;-75
2023/08/07 10:00:59;;;;;;;2.53;1.30;;;;;;;;;;5095952;28;20031;-75
2023/08/07 10:03:25;;;;;;;6.10;1.58;;;17.80;65.80;;;;;;5094997;28;20039;-76
2023/08/07 10:05:51;;;;;;;2.33;1.42;;;18.00;65.50;;;;;;5059367;28;20032;-76
2023/08/07 10:08:18;;;;;;;2.70;1.10;;;18.00;65.50;;;;;;5055050;28;20047;-76
2023/08/07 10:10:44;;;;;;;2.42;1.15;;;18.00;65.20;;;;;;5055619;28;20067;-75
2023/08/07 10:13:13;;;;;;;1.83;1.40;;;17.90;65.10;;;;;;5057286;28;20021;-76
2023/08/07 10:15:40;;;;;;;1.20;1.10;;;17.90;65.40;;;;;;5057051;28;20024;-75
2023/08/07 10:18:06;;;;;;;3.03;1.48;;;18.10;66.00;;;;;;5068339;28;20028;-76
2023/08/07 10:20:32;;;;;;;1.67;1.15;;;18.30;64.80;;;;;;5087658;28;20238;-76
2023/08/07 10:23:04;;;;;;;2.60;1.58;;;18.50;63.40;;;;;;5057956;28;20029;-74
2023/08/07 10:25:31;;;;;;;2.80;1.67;;;18.60;63.30;;;;;;5055458;28;20032;-75
2023/08/07 10:28:00;;;;;;;1.73;1.50;;;18.70;63.90;;;;;;5054785;28;20486;-76
2023/08/07 10:30:26;;;;;;;1.40;1.30;;;19.20;62.30;;;;;;5056277;28;20029;-75
2023/08/07 10:32:53;;;;;;;1.30;1.20;;;19.40;60.50;;;;;;5057619;28;20586;-76
2023/08/07 10:35:32;;;;;;;2.28;1.40;;;19.60;59.70;;;;;;5055388;28;20434;-76
2023/08/07 10:38:10;;;;;;;2.15;1.30;;;19.90;58.70;;;;;;5063773;28;20020;-75
2023/08/07 10:40:58;;;;;;;1.65;1.35;;;19.90;58.70;;;;;;5062240;28;20022;-76
2023/08/07 10:43:24;;;;;;;4.60;1.30;;;20.10;58.00;;;;;;5057203;28;20061;-76
2023/08/07 10:45:50;;;;;;;2.47;1.23;;;19.90;57.80;;;;;;5054844;28;20048;-76
2023/08/07 10:48:21;;;;;;;1.27;1.02;;;19.80;57.80;;;;;;5074295;28;20465;-75
2023/08/07 10:51:03;;;;;;;1.90;1.20;;;19.40;58.90;;;;;;5088670;28;20371;-76
2023/08/07 10:53:33;;;;;;;2.47;1.23;;;19.40;59.10;;;;;;5091081;28;20032;-77
2023/08/07 10:56:02;;;;;;;2.08;1.33;;;19.60;58.70;;;;;;5069552;28;20033;-75
2023/08/07 10:58:36;;;;;;;1.35;1.20;;;19.80;58.10;;;;;;5057112;28;20032;-75
2023/08/07 11:01:29;;;;;;;1.30;1.20;;;19.80;58.40;;;;;;5059812;28;20066;-75
2023/08/07 11:03:57;;;;;;;2.35;1.33;;;19.80;57.60;;;;;;5067633;28;20033;-77
2023/08/07 11:06:31;;;;;;;1.63;1.13;;;19.50;58.10;;;;;;5067566;28;20069;-76
2023/08/07 11:08:57;;;;;;;0.85;0.85;;;19.40;58.80;;;;;;5065503;28;20013;-74
2023/08/07 11:11:26;;;;;;;1.17;1.00;;;19.70;59.70;;;;;;5076081;28;20028;-75
2023/08/07 11:13:52;;;;;;;1.05;1.00;;;20.20;58.50;;;;;;5077820;28;20021;-75
2023/08/07 11:16:20;;;;;;;4.10;1.38;;;20.40;57.30;;;;;;5080250;28;20088;-76
2023/08/07 11:18:47;;;;;;;1.65;1.52;;;20.50;57.00;;;;;;5090086;28;20024;-75
2023/08/07 11:21:13;;;;;;;1.25;1.13;;;20.60;57.20;;;;;;5090564;28;20024;-74
2023/08/07 11:23:40;;;;;;;1.02;0.90;;;20.60;56.10;;;;;;5086065;28;20028;-76
2023/08/07 11:26:06;;;;;;;1.70;1.58;;;20.60;55.90;;;;;;5082503;28;20104;-76
2023/08/07 11:28:32;;;;;;;2.25;0.88;;;20.40;55.70;;;;;;5081157;28;20024;-76
2023/08/07 11:30:58;;;;;;;2.38;1.13;;;20.10;55.70;;;;;;5077666;28;20077;-75
2023/08/07 11:33:25;;;;;;;1.98;1.20;;;19.70;56.60;;;;;;5078544;28;20024;-75
2023/08/07 11:35:52;;;;;;;1.10;1.00;;;;;;;;;;5066348;28;20025;-75
2023/08/07 11:38:37;;;;;;;1.25;1.15;;;19.00;57.70;;;;;;5058086;28;20099;-76
2023/08/07 11:41:05;;;;;;;2.13;1.00;;;18.40;59.20;;;;;;5053589;28;20477;-74
2023/08/07 11:43:34;;;;;;;1.27;1.15;;;17.80;61.20;;;;;;5055481;28;20033;-76
2023/08/07 11:46:05;;;;;;;2.75;1.20;;;17.50;63.00;;;;;;5054244;28;20024;-75
2023/08/07 11:48:40;;;;;;;1.20;1.10;;;17.20;63.80;;;;;;5070869;28;20016;-75
2023/08/07 11:51:07;;;;;;;0.90;0.90;;;17.10;64.80;;;;;;5077691;28;20020;-75
2023/08/07 11:53:35;;;;;;;1.98;1.05;;;17.20;65.70;;;;;;5055077;28;20025;-76
2023/08/07 11:56:03;;;;;;;0.90;0.90;;;17.40;65.80;;;;;;5054451;28;20089;-75
2023/08/07 11:58:42;;;;;;;1.30;1.13;;;17.70;65.40;;;;;;5053293;28;20043;-75
2023/08/07 12:01:14;;;;;;;1.92;1.13;;;18.00;64.30;;;;;;5054816;28;20021;-74
2023/08/07 12:03:50;;;;;;;;;;;18.50;62.70;;;;;;5055375;28;20021;-77
2023/08/07 12:06:15;;;;;;;1.23;1.10;;;18.90;60.10;;;;;;5053877;28;19951;-75
2023/08/07 12:08:41;;;;;;;1.67;1.45;;;19.00;60.10;;;;;;5064429;28;20021;-75
2023/08/07 12:11:09;;;;;;;1.08;1.08;;;19.10;59.80;;;;;;5075511;28;20078;-75
2023/08/07 12:13:45;;;;;;;2.13;1.15;;;19.20;59.20;;;;;;5074186;28;20071;-77
2023/08/07 12:16:15;;;;;;;1.23;1.13;;;19.50;58.30;;;;;;5077712;28;20031;-73
2023/08/07 12:18:49;;;;;;;1.80;1.23;;;19.80;57.80;;;;;;5097159;28;20022;-72
2023/08/07 12:21:18;;;;;;;1.10;1.00;;;20.20;55.70;;;;;;5089598;28;20046;-74
2023/08/07 12:23:53;;;;;;;1.50;1.00;;;20.60;55.50;;;;;;5079072;28;20021;-75
2023/08/07 12:26:19;;;;;;;0.80;0.80;;;20.70;54.60;;;;;;5072992;28;20052;-76
2023/08/07 12:28:44;;;;;;;1.55;1.00;;;21.00;54.70;;;;;;5074474;28;20032;-74
2023/08/07 12:31:10;;;;;;;3.65;1.13;;;21.40;54.10;;;;;;5074710;28;20076;-75
2023/08/07 12:33:36;;;;;;;0.93;0.88;;;21.80;52.20;;;;;;5074141;28;20080;-75
2023/08/07 12:36:02;;;;;;;3.25;0.93;;;22.10;51.20;;;;;;5072419;28;20028;-75
2023/08/07 12:38:28;;;;;;;3.90;1.10;;;21.90;51.20;;;;;;5073129;28;20029;-75
2023/08/07 12:40:54;;;;;;;1.08;0.90;;;21.60;50.20;;;;;;5074176;28;20025;-75
2023/08/07 12:43:20;;;;;;;1.63;1.20;;;21.20;50.80;;;;;;5055367;28;20461;-76
2023/08/07 12:45:46;;;;;;;2.55;1.20;;;20.80;52.00;;;;;;5053495;28;20425;-76
2023/08/07 12:48:12;;;;;;;1.05;0.85;;;20.50;51.70;;;;;;5063420;28;20024;-75
2023/08/07 12:50:39;;;;;;;1.20;1.10;;;20.30;52.30;;;;;;5082577;28;20431;-76